sensor_id;sensor_type;location;lat;lon;timestamp;P1;durP1;ratioP1;P2;durP2;ratioP2
27505;SDS011;14939;43.596;1.320;2023-02-26T00:02:06;34.22;;;18.33;;
27505;SDS011;14939;43.596;1.320;2023-02-26T00:04:34;23.98;;;14.73;;
27505;SDS011;14939;43.596;1.320;2023-02-26T00:07:01;25.10;;;16.35;;
27505;SDS011;14939;43.596;1.320;2023-02-26T00:12:32;14.10;;;9.85;;
27505;SDS011;14939;43.596;1.320;2023-02-26T00:14:58;16.67;;;11.98;;
27505;SDS011;14939;43.596;1.320;2023-02-26T00:19:58;14.98;;;10.15;;
27505;SDS011;14939;43.596;1.320;2023-02-26T00:22:24;18.98;;;14.15;;
27505;SDS011;14939;43.596;1.320;2023-02-26T00:24:50;19.02;;;10.43;;
27505;SDS011;14939;43.596;1.320;2023-02-26T00:27:16;29.27;;;17.60;;
27505;SDS011;14939;43.596;1.320;2023-02-26T00:29:42;34.25;;;21.75;;
27505;SDS011;14939;43.596;1.320;2023-02-26T00:32:09;19.13;;;13.00;;
27505;SDS011;14939;43.596;1.320;2023-02-26T00:34:36;17.85;;;12.52;;
27505;SDS011;14939;43.596;1.320;2023-02-26T00:42:07;21.00;;;13.98;;
27505;SDS011;14939;43.596;1.320;2023-02-26T00:44:33;20.08;;;14.02;;
27505;SDS011;14939;43.596;1.320;2023-02-26T00:47:00;29.75;;;22.70;;
27505;SDS011;14939;43.596;1.320;2023-02-26T00:52:18;31.58;;;22.58;;
27505;SDS011;14939;43.596;1.320;2023-02-26T00:55:06;19.60;;;10.93;;
27505;SDS011;14939;43.596;1.320;2023-02-26T00:57:31;20.52;;;13.20;;
27505;SDS011;14939;43.596;1.320;2023-02-26T00:59:57;18.40;;;12.63;;
27505;SDS011;14939;43.596;1.320;2023-02-26T01:02:23;20.02;;;12.38;;
27505;SDS011;14939;43.596;1.320;2023-02-26T01:04:49;20.70;;;12.40;;
27505;SDS011;14939;43.596;1.320;2023-02-26T01:07:15;23.50;;;14.57;;
27505;SDS011;14939;43.596;1.320;2023-02-26T01:09:46;21.05;;;13.20;;
27505;SDS011;14939;43.596;1.320;2023-02-26T01:12:12;20.05;;;12.57;;
27505;SDS011;14939;43.596;1.320;2023-02-26T01:14:39;19.52;;;12.52;;
27505;SDS011;14939;43.596;1.320;2023-02-26T01:19:57;26.13;;;14.88;;
27505;SDS011;14939;43.596;1.320;2023-02-26T01:22:34;23.65;;;14.98;;
27505;SDS011;14939;43.596;1.320;2023-02-26T01:25:25;20.38;;;12.80;;
27505;SDS011;14939;43.596;1.320;2023-02-26T01:27:54;21.42;;;13.07;;
27505;SDS011;14939;43.596;1.320;2023-02-26T01:30:21;24.45;;;13.32;;
27505;SDS011;14939;43.596;1.320;2023-02-26T01:38:27;26.98;;;16.05;;
27505;SDS011;14939;43.596;1.320;2023-02-26T01:41:19;22.70;;;14.02;;
27505;SDS011;14939;43.596;1.320;2023-02-26T01:49:17;24.45;;;13.57;;
27505;SDS011;14939;43.596;1.320;2023-02-26T01:51:50;22.83;;;12.50;;
27505;SDS011;14939;43.596;1.320;2023-02-26T01:54:20;23.67;;;13.95;;
27505;SDS011;14939;43.596;1.320;2023-02-26T01:56:54;24.17;;;13.57;;
27505;SDS011;14939;43.596;1.320;2023-02-26T01:59:23;23.52;;;12.35;;
27505;SDS011;14939;43.596;1.320;2023-02-26T02:01:50;22.40;;;12.48;;
27505;SDS011;14939;43.596;1.320;2023-02-26T02:04:17;28.38;;;14.15;;
27505;SDS011;14939;43.596;1.320;2023-02-26T02:06:44;23.00;;;13.70;;
27505;SDS011;14939;43.596;1.320;2023-02-26T02:09:11;22.13;;;12.93;;
27505;SDS011;14939;43.596;1.320;2023-02-26T02:12:00;24.50;;;13.93;;
27505;SDS011;14939;43.596;1.320;2023-02-26T02:33:51;21.50;;;13.40;;
27505;SDS011;14939;43.596;1.320;2023-02-26T02:36:46;23.05;;;15.02;;
27505;SDS011;14939;43.596;1.320;2023-02-26T02:39:27;25.25;;;14.80;;
27505;SDS011;14939;43.596;1.320;2023-02-26T02:42:05;25.30;;;15.48;;
27505;SDS011;14939;43.596;1.320;2023-02-26T02:44:36;20.75;;;13.93;;
27505;SDS011;14939;43.596;1.320;2023-02-26T02:47:05;25.40;;;14.68;;
27505;SDS011;14939;43.596;1.320;2023-02-26T02:49:35;22.42;;;12.70;;
27505;SDS011;14939;43.596;1.320;2023-02-26T02:52:18;19.35;;;11.80;;
27505;SDS011;14939;43.596;1.320;2023-02-26T02:54:52;21.58;;;11.10;;
27505;SDS011;14939;43.596;1.320;2023-02-26T02:57:27;23.35;;;13.13;;
27505;SDS011;14939;43.596;1.320;2023-02-26T02:59:59;23.30;;;13.27;;
27505;SDS011;14939;43.596;1.320;2023-02-26T03:04:55;23.58;;;14.77;;
27505;SDS011;14939;43.596;1.320;2023-02-26T03:07:21;21.75;;;12.55;;
27505;SDS011;14939;43.596;1.320;2023-02-26T03:09:47;26.08;;;14.13;;
27505;SDS011;14939;43.596;1.320;2023-02-26T03:12:13;19.27;;;12.23;;
27505;SDS011;14939;43.596;1.320;2023-02-26T03:14:39;27.33;;;16.02;;
27505;SDS011;14939;43.596;1.320;2023-02-26T03:19:37;19.35;;;13.05;;
27505;SDS011;14939;43.596;1.320;2023-02-26T03:25:08;22.17;;;12.38;;
27505;SDS011;14939;43.596;1.320;2023-02-26T03:27:45;19.38;;;12.73;;
27505;SDS011;14939;43.596;1.320;2023-02-26T03:40:55;18.92;;;11.00;;
27505;SDS011;14939;43.596;1.320;2023-02-26T03:44:15;17.15;;;10.75;;
27505;SDS011;14939;43.596;1.320;2023-02-26T03:46:25;18.67;;;9.65;;
27505;SDS011;14939;43.596;1.320;2023-02-26T03:48:58;14.73;;;9.10;;
27505;SDS011;14939;43.596;1.320;2023-02-26T03:51:29;17.35;;;11.63;;
27505;SDS011;14939;43.596;1.320;2023-02-26T03:54:09;20.05;;;11.93;;
27505;SDS011;14939;43.596;1.320;2023-02-26T03:57:06;18.98;;;9.52;;
27505;SDS011;14939;43.596;1.320;2023-02-26T03:59:32;16.35;;;10.10;;
27505;SDS011;14939;43.596;1.320;2023-02-26T04:04:36;18.13;;;9.45;;
27505;SDS011;14939;43.596;1.320;2023-02-26T04:07:25;17.05;;;10.55;;
27505;SDS011;14939;43.596;1.320;2023-02-26T04:09:51;15.38;;;9.13;;
27505;SDS011;14939;43.596;1.320;2023-02-26T04:12:24;13.90;;;9.02;;
27505;SDS011;14939;43.596;1.320;2023-02-26T04:14:52;13.82;;;9.80;;
27505;SDS011;14939;43.596;1.320;2023-02-26T04:17:19;14.75;;;9.25;;
27505;SDS011;14939;43.596;1.320;2023-02-26T04:19:45;15.48;;;9.75;;
27505;SDS011;14939;43.596;1.320;2023-02-26T04:22:10;15.82;;;9.70;;
27505;SDS011;14939;43.596;1.320;2023-02-26T04:24:36;18.30;;;10.15;;
27505;SDS011;14939;43.596;1.320;2023-02-26T04:27:03;16.50;;;10.43;;
27505;SDS011;14939;43.596;1.320;2023-02-26T04:29:28;17.20;;;10.50;;
27505;SDS011;14939;43.596;1.320;2023-02-26T04:31:54;14.65;;;9.27;;
27505;SDS011;14939;43.596;1.320;2023-02-26T04:34:20;14.80;;;8.80;;
27505;SDS011;14939;43.596;1.320;2023-02-26T04:36:46;13.55;;;8.82;;
27505;SDS011;14939;43.596;1.320;2023-02-26T04:39:11;14.15;;;8.52;;
27505;SDS011;14939;43.596;1.320;2023-02-26T04:41:37;15.77;;;9.60;;
27505;SDS011;14939;43.596;1.320;2023-02-26T04:44:03;13.05;;;8.95;;
27505;SDS011;14939;43.596;1.320;2023-02-26T04:46:29;14.45;;;7.95;;
27505;SDS011;14939;43.596;1.320;2023-02-26T04:48:56;13.85;;;7.68;;
27505;SDS011;14939;43.596;1.320;2023-02-26T04:51:22;12.60;;;7.32;;
27505;SDS011;14939;43.596;1.320;2023-02-26T04:53:48;15.05;;;8.43;;
27505;SDS011;14939;43.596;1.320;2023-02-26T04:56:13;12.75;;;7.25;;
27505;SDS011;14939;43.596;1.320;2023-02-26T04:58:39;11.50;;;7.10;;
27505;SDS011;14939;43.596;1.320;2023-02-26T05:01:05;13.05;;;6.78;;
27505;SDS011;14939;43.596;1.320;2023-02-26T05:03:31;15.77;;;6.55;;
27505;SDS011;14939;43.596;1.320;2023-02-26T05:05:57;9.43;;;5.80;;
27505;SDS011;14939;43.596;1.320;2023-02-26T05:08:22;10.70;;;5.88;;
27505;SDS011;14939;43.596;1.320;2023-02-26T05:10:49;8.75;;;5.35;;
27505;SDS011;14939;43.596;1.320;2023-02-26T05:13:15;13.18;;;6.72;;
27505;SDS011;14939;43.596;1.320;2023-02-26T05:15:41;10.77;;;6.07;;
27505;SDS011;14939;43.596;1.320;2023-02-26T05:18:07;13.10;;;7.28;;
27505;SDS011;14939;43.596;1.320;2023-02-26T05:20:33;10.82;;;6.53;;
27505;SDS011;14939;43.596;1.320;2023-02-26T05:22:58;12.27;;;6.97;;
27505;SDS011;14939;43.596;1.320;2023-02-26T05:25:24;11.60;;;6.03;;
27505;SDS011;14939;43.596;1.320;2023-02-26T05:27:50;9.80;;;6.28;;
27505;SDS011;14939;43.596;1.320;2023-02-26T05:30:16;11.63;;;6.22;;
27505;SDS011;14939;43.596;1.320;2023-02-26T05:32:42;12.60;;;6.70;;
27505;SDS011;14939;43.596;1.320;2023-02-26T05:35:08;11.82;;;6.00;;
27505;SDS011;14939;43.596;1.320;2023-02-26T05:37:35;10.32;;;6.15;;
27505;SDS011;14939;43.596;1.320;2023-02-26T05:40:01;12.02;;;5.88;;
27505;SDS011;14939;43.596;1.320;2023-02-26T05:42:27;8.68;;;5.60;;
27505;SDS011;14939;43.596;1.320;2023-02-26T05:44:53;9.50;;;5.50;;
27505;SDS011;14939;43.596;1.320;2023-02-26T05:47:18;10.30;;;5.40;;
27505;SDS011;14939;43.596;1.320;2023-02-26T05:49:44;12.20;;;5.57;;
27505;SDS011;14939;43.596;1.320;2023-02-26T05:52:10;9.40;;;5.20;;
27505;SDS011;14939;43.596;1.320;2023-02-26T05:54:35;8.75;;;4.85;;
27505;SDS011;14939;43.596;1.320;2023-02-26T05:57:01;9.23;;;5.38;;
27505;SDS011;14939;43.596;1.320;2023-02-26T05:59:27;9.15;;;4.90;;
27505;SDS011;14939;43.596;1.320;2023-02-26T06:01:52;9.15;;;4.95;;
27505;SDS011;14939;43.596;1.320;2023-02-26T06:04:18;11.15;;;5.20;;
27505;SDS011;14939;43.596;1.320;2023-02-26T06:06:44;7.38;;;4.22;;
27505;SDS011;14939;43.596;1.320;2023-02-26T06:09:09;9.02;;;5.05;;
27505;SDS011;14939;43.596;1.320;2023-02-26T06:11:35;15.07;;;5.35;;
27505;SDS011;14939;43.596;1.320;2023-02-26T06:14:02;12.00;;;5.13;;
27505;SDS011;14939;43.596;1.320;2023-02-26T06:16:28;8.95;;;5.00;;
27505;SDS011;14939;43.596;1.320;2023-02-26T06:18:54;9.05;;;5.30;;
27505;SDS011;14939;43.596;1.320;2023-02-26T06:21:19;8.95;;;4.82;;
27505;SDS011;14939;43.596;1.320;2023-02-26T06:23:45;11.45;;;5.57;;
27505;SDS011;14939;43.596;1.320;2023-02-26T06:26:11;13.60;;;4.90;;
27505;SDS011;14939;43.596;1.320;2023-02-26T06:28:36;14.15;;;5.50;;
27505;SDS011;14939;43.596;1.320;2023-02-26T06:31:02;12.40;;;5.38;;
27505;SDS011;14939;43.596;1.320;2023-02-26T06:33:28;8.55;;;5.50;;
27505;SDS011;14939;43.596;1.320;2023-02-26T06:35:54;9.32;;;6.20;;
27505;SDS011;14939;43.596;1.320;2023-02-26T06:38:22;14.52;;;7.60;;
27505;SDS011;14939;43.596;1.320;2023-02-26T06:40:48;12.05;;;5.90;;
27505;SDS011;14939;43.596;1.320;2023-02-26T06:43:13;16.33;;;5.88;;
27505;SDS011;14939;43.596;1.320;2023-02-26T06:45:39;11.02;;;4.93;;
27505;SDS011;14939;43.596;1.320;2023-02-26T06:48:05;12.95;;;4.75;;
27505;SDS011;14939;43.596;1.320;2023-02-26T06:50:31;9.07;;;4.30;;
27505;SDS011;14939;43.596;1.320;2023-02-26T06:52:57;9.50;;;4.63;;
27505;SDS011;14939;43.596;1.320;2023-02-26T06:55:23;9.48;;;4.45;;
27505;SDS011;14939;43.596;1.320;2023-02-26T06:57:52;11.63;;;4.40;;
27505;SDS011;14939;43.596;1.320;2023-02-26T07:00:19;11.55;;;4.57;;
27505;SDS011;14939;43.596;1.320;2023-02-26T07:02:45;7.72;;;4.22;;
27505;SDS011;14939;43.596;1.320;2023-02-26T07:05:11;9.02;;;4.30;;
27505;SDS011;14939;43.596;1.320;2023-02-26T07:07:37;10.75;;;4.10;;
27505;SDS011;14939;43.596;1.320;2023-02-26T07:10:03;11.48;;;4.25;;
27505;SDS011;14939;43.596;1.320;2023-02-26T07:12:29;10.65;;;5.38;;
27505;SDS011;14939;43.596;1.320;2023-02-26T07:14:55;11.82;;;5.53;;
27505;SDS011;14939;43.596;1.320;2023-02-26T07:17:21;10.77;;;5.70;;
27505;SDS011;14939;43.596;1.320;2023-02-26T07:19:48;12.82;;;6.05;;
27505;SDS011;14939;43.596;1.320;2023-02-26T07:22:15;12.30;;;7.05;;
27505;SDS011;14939;43.596;1.320;2023-02-26T07:24:41;8.00;;;5.18;;
27505;SDS011;14939;43.596;1.320;2023-02-26T07:27:07;9.60;;;5.45;;
27505;SDS011;14939;43.596;1.320;2023-02-26T07:29:33;12.80;;;6.20;;
27505;SDS011;14939;43.596;1.320;2023-02-26T07:31:59;11.57;;;5.00;;
27505;SDS011;14939;43.596;1.320;2023-02-26T07:34:25;11.63;;;4.70;;
27505;SDS011;14939;43.596;1.320;2023-02-26T07:36:51;7.32;;;4.20;;
27505;SDS011;14939;43.596;1.320;2023-02-26T07:39:16;9.60;;;3.97;;
27505;SDS011;14939;43.596;1.320;2023-02-26T07:41:42;7.43;;;3.78;;
27505;SDS011;14939;43.596;1.320;2023-02-26T07:44:08;10.55;;;4.07;;
27505;SDS011;14939;43.596;1.320;2023-02-26T07:46:34;10.80;;;4.40;;
27505;SDS011;14939;43.596;1.320;2023-02-26T07:48:59;8.70;;;4.38;;
27505;SDS011;14939;43.596;1.320;2023-02-26T07:51:25;8.13;;;4.00;;
27505;SDS011;14939;43.596;1.320;2023-02-26T07:53:51;10.45;;;3.65;;
27505;SDS011;14939;43.596;1.320;2023-02-26T07:56:16;8.27;;;3.50;;
27505;SDS011;14939;43.596;1.320;2023-02-26T07:58:42;10.38;;;3.83;;
27505;SDS011;14939;43.596;1.320;2023-02-26T08:01:08;9.70;;;3.90;;
27505;SDS011;14939;43.596;1.320;2023-02-26T08:03:34;10.25;;;4.07;;
27505;SDS011;14939;43.596;1.320;2023-02-26T08:05:59;12.88;;;3.83;;
27505;SDS011;14939;43.596;1.320;2023-02-26T08:08:26;9.68;;;3.50;;
27505;SDS011;14939;43.596;1.320;2023-02-26T08:10:51;8.10;;;3.30;;
27505;SDS011;14939;43.596;1.320;2023-02-26T08:13:17;7.65;;;3.45;;
27505;SDS011;14939;43.596;1.320;2023-02-26T08:15:43;9.35;;;3.30;;
27505;SDS011;14939;43.596;1.320;2023-02-26T08:18:09;7.38;;;3.20;;
27505;SDS011;14939;43.596;1.320;2023-02-26T08:20:36;8.07;;;3.53;;
27505;SDS011;14939;43.596;1.320;2023-02-26T08:23:02;9.52;;;3.25;;
27505;SDS011;14939;43.596;1.320;2023-02-26T08:25:28;10.77;;;3.30;;
27505;SDS011;14939;43.596;1.320;2023-02-26T08:27:54;9.52;;;3.28;;
27505;SDS011;14939;43.596;1.320;2023-02-26T08:30:21;9.10;;;3.85;;
27505;SDS011;14939;43.596;1.320;2023-02-26T08:32:47;8.45;;;3.38;;
27505;SDS011;14939;43.596;1.320;2023-02-26T08:35:13;9.85;;;3.67;;
27505;SDS011;14939;43.596;1.320;2023-02-26T08:37:40;8.38;;;3.15;;
27505;SDS011;14939;43.596;1.320;2023-02-26T08:40:06;12.45;;;4.75;;
27505;SDS011;14939;43.596;1.320;2023-02-26T08:42:33;7.55;;;2.97;;
27505;SDS011;14939;43.596;1.320;2023-02-26T08:44:59;12.13;;;3.40;;
27505;SDS011;14939;43.596;1.320;2023-02-26T08:47:24;10.45;;;2.75;;
27505;SDS011;14939;43.596;1.320;2023-02-26T08:49:51;9.27;;;3.28;;
27505;SDS011;14939;43.596;1.320;2023-02-26T08:52:17;8.23;;;2.85;;
27505;SDS011;14939;43.596;1.320;2023-02-26T08:54:44;7.75;;;2.88;;
27505;SDS011;14939;43.596;1.320;2023-02-26T08:57:09;11.07;;;3.55;;
27505;SDS011;14939;43.596;1.320;2023-02-26T08:59:35;6.63;;;3.03;;
27505;SDS011;14939;43.596;1.320;2023-02-26T09:02:01;9.13;;;3.40;;
27505;SDS011;14939;43.596;1.320;2023-02-26T09:04:26;7.28;;;2.75;;
27505;SDS011;14939;43.596;1.320;2023-02-26T09:06:52;9.32;;;3.03;;
27505;SDS011;14939;43.596;1.320;2023-02-26T09:09:19;10.60;;;3.10;;
27505;SDS011;14939;43.596;1.320;2023-02-26T09:11:45;8.15;;;2.97;;
27505;SDS011;14939;43.596;1.320;2023-02-26T09:14:11;9.57;;;3.25;;
27505;SDS011;14939;43.596;1.320;2023-02-26T09:16:38;9.35;;;3.13;;
27505;SDS011;14939;43.596;1.320;2023-02-26T09:19:04;11.68;;;3.00;;
27505;SDS011;14939;43.596;1.320;2023-02-26T09:21:31;9.85;;;3.17;;
27505;SDS011;14939;43.596;1.320;2023-02-26T09:23:57;8.60;;;3.08;;
27505;SDS011;14939;43.596;1.320;2023-02-26T09:26:23;9.32;;;3.13;;
27505;SDS011;14939;43.596;1.320;2023-02-26T09:28:49;9.95;;;3.28;;
27505;SDS011;14939;43.596;1.320;2023-02-26T09:31:15;8.98;;;3.35;;
27505;SDS011;14939;43.596;1.320;2023-02-26T09:33:40;8.38;;;3.17;;
27505;SDS011;14939;43.596;1.320;2023-02-26T09:36:06;8.07;;;3.58;;
27505;SDS011;14939;43.596;1.320;2023-02-26T09:38:32;6.82;;;3.50;;
27505;SDS011;14939;43.596;1.320;2023-02-26T09:52:44;10.25;;;3.58;;
27505;SDS011;14939;43.596;1.320;2023-02-26T09:55:35;11.93;;;3.83;;
27505;SDS011;14939;43.596;1.320;2023-02-26T09:58:05;11.63;;;4.10;;
27505;SDS011;14939;43.596;1.320;2023-02-26T10:00:42;8.40;;;3.90;;
27505;SDS011;14939;43.596;1.320;2023-02-26T10:14:11;9.93;;;4.13;;
27505;SDS011;14939;43.596;1.320;2023-02-26T10:17:00;8.48;;;3.65;;
27505;SDS011;14939;43.596;1.320;2023-02-26T10:19:33;12.38;;;4.95;;
27505;SDS011;14939;43.596;1.320;2023-02-26T10:22:06;9.38;;;4.22;;
27505;SDS011;14939;43.596;1.320;2023-02-26T10:24:43;10.55;;;5.00;;
27505;SDS011;14939;43.596;1.320;2023-02-26T10:27:21;12.35;;;5.47;;
27505;SDS011;14939;43.596;1.320;2023-02-26T10:30:04;10.13;;;4.45;;
27505;SDS011;14939;43.596;1.320;2023-02-26T10:35:03;13.38;;;5.22;;
27505;SDS011;14939;43.596;1.320;2023-02-26T10:50:51;10.98;;;5.60;;
27505;SDS011;14939;43.596;1.320;2023-02-26T10:53:19;14.52;;;5.63;;
27505;SDS011;14939;43.596;1.320;2023-02-26T10:56:06;10.52;;;4.80;;
27505;SDS011;14939;43.596;1.320;2023-02-26T10:58:40;8.40;;;5.00;;
27505;SDS011;14939;43.596;1.320;2023-02-26T11:01:16;14.27;;;5.18;;
27505;SDS011;14939;43.596;1.320;2023-02-26T11:03:45;10.82;;;4.72;;
27505;SDS011;14939;43.596;1.320;2023-02-26T11:06:18;11.20;;;5.55;;
27505;SDS011;14939;43.596;1.320;2023-02-26T11:08:50;14.38;;;6.25;;
27505;SDS011;14939;43.596;1.320;2023-02-26T11:11:36;13.10;;;5.82;;
27505;SDS011;14939;43.596;1.320;2023-02-26T11:14:05;10.18;;;4.88;;
27505;SDS011;14939;43.596;1.320;2023-02-26T11:16:32;13.23;;;5.80;;
27505;SDS011;14939;43.596;1.320;2023-02-26T11:18:59;10.77;;;5.65;;
27505;SDS011;14939;43.596;1.320;2023-02-26T11:21:29;10.48;;;5.20;;
27505;SDS011;14939;43.596;1.320;2023-02-26T11:24:27;11.07;;;4.97;;
27505;SDS011;14939;43.596;1.320;2023-02-26T11:26:54;13.13;;;6.07;;
27505;SDS011;14939;43.596;1.320;2023-02-26T11:29:23;13.20;;;5.82;;
27505;SDS011;14939;43.596;1.320;2023-02-26T11:31:50;11.35;;;5.68;;
27505;SDS011;14939;43.596;1.320;2023-02-26T11:34:20;10.85;;;5.15;;
27505;SDS011;14939;43.596;1.320;2023-02-26T11:36:47;14.80;;;5.45;;
27505;SDS011;14939;43.596;1.320;2023-02-26T11:41:43;11.68;;;5.05;;
27505;SDS011;14939;43.596;1.320;2023-02-26T11:44:12;9.80;;;5.30;;
27505;SDS011;14939;43.596;1.320;2023-02-26T11:46:49;8.97;;;4.20;;
27505;SDS011;14939;43.596;1.320;2023-02-26T11:49:17;13.68;;;5.72;;
27505;SDS011;14939;43.596;1.320;2023-02-26T11:51:47;9.32;;;5.22;;
27505;SDS011;14939;43.596;1.320;2023-02-26T11:54:27;11.23;;;6.05;;
27505;SDS011;14939;43.596;1.320;2023-02-26T11:57:04;19.45;;;11.93;;
27505;SDS011;14939;43.596;1.320;2023-02-26T11:59:32;37.15;;;17.50;;
27505;SDS011;14939;43.596;1.320;2023-02-26T12:02:41;92.32;;;41.53;;
27505;SDS011;14939;43.596;1.320;2023-02-26T12:04:54;43.70;;;20.85;;
27505;SDS011;14939;43.596;1.320;2023-02-26T12:07:24;53.67;;;25.90;;
27505;SDS011;14939;43.596;1.320;2023-02-26T12:09:50;16.42;;;8.15;;
27505;SDS011;14939;43.596;1.320;2023-02-26T12:12:26;13.77;;;6.90;;
27505;SDS011;14939;43.596;1.320;2023-02-26T12:20:25;15.45;;;7.88;;
27505;SDS011;14939;43.596;1.320;2023-02-26T12:28:11;9.40;;;5.22;;
27505;SDS011;14939;43.596;1.320;2023-02-26T12:31:18;12.32;;;6.53;;
27505;SDS011;14939;43.596;1.320;2023-02-26T12:47:40;13.07;;;6.57;;
27505;SDS011;14939;43.596;1.320;2023-02-26T12:52:46;14.57;;;7.65;;
27505;SDS011;14939;43.596;1.320;2023-02-26T12:58:42;11.10;;;5.80;;
27505;SDS011;14939;43.596;1.320;2023-02-26T13:19:00;7.03;;;4.80;;
27505;SDS011;14939;43.596;1.320;2023-02-26T13:21:35;10.18;;;5.20;;
27505;SDS011;14939;43.596;1.320;2023-02-26T13:24:22;8.00;;;4.95;;
27505;SDS011;14939;43.596;1.320;2023-02-26T13:26:50;8.80;;;5.15;;
27505;SDS011;14939;43.596;1.320;2023-02-26T13:31:58;8.32;;;4.72;;
27505;SDS011;14939;43.596;1.320;2023-02-26T13:34:34;7.22;;;4.35;;
27505;SDS011;14939;43.596;1.320;2023-02-26T13:37:38;7.10;;;4.63;;
27505;SDS011;14939;43.596;1.320;2023-02-26T13:45:27;10.20;;;5.10;;
27505;SDS011;14939;43.596;1.320;2023-02-26T13:48:25;4.88;;;2.97;;
27505;SDS011;14939;43.596;1.320;2023-02-26T13:50:56;4.53;;;2.53;;
27505;SDS011;14939;43.596;1.320;2023-02-26T13:53:41;6.18;;;2.70;;
27505;SDS011;14939;43.596;1.320;2023-02-26T14:02:15;4.28;;;1.75;;
27505;SDS011;14939;43.596;1.320;2023-02-26T14:04:25;5.35;;;1.95;;
27505;SDS011;14939;43.596;1.320;2023-02-26T14:06:56;4.50;;;1.70;;
27505;SDS011;14939;43.596;1.320;2023-02-26T14:09:43;2.33;;;1.17;;
27505;SDS011;14939;43.596;1.320;2023-02-26T14:17:35;2.17;;;1.30;;
27505;SDS011;14939;43.596;1.320;2023-02-26T14:20:14;2.15;;;1.10;;
27505;SDS011;14939;43.596;1.320;2023-02-26T14:22:45;2.80;;;1.38;;
27505;SDS011;14939;43.596;1.320;2023-02-26T14:25:20;2.28;;;1.20;;
27505;SDS011;14939;43.596;1.320;2023-02-26T14:31:07;4.07;;;1.50;;
27505;SDS011;14939;43.596;1.320;2023-02-26T14:33:47;3.28;;;1.80;;
27505;SDS011;14939;43.596;1.320;2023-02-26T14:36:34;6.07;;;1.83;;
27505;SDS011;14939;43.596;1.320;2023-02-26T14:42:19;3.70;;;2.00;;
27505;SDS011;14939;43.596;1.320;2023-02-26T14:45:39;4.78;;;2.05;;
27505;SDS011;14939;43.596;1.320;2023-02-26T14:47:46;3.20;;;1.88;;
27505;SDS011;14939;43.596;1.320;2023-02-26T14:50:17;4.03;;;1.88;;
27505;SDS011;14939;43.596;1.320;2023-02-26T14:58:21;2.08;;;1.50;;
27505;SDS011;14939;43.596;1.320;2023-02-26T15:25:50;3.00;;;1.42;;
27505;SDS011;14939;43.596;1.320;2023-02-26T15:28:21;2.90;;;1.35;;
27505;SDS011;14939;43.596;1.320;2023-02-26T15:30:54;2.03;;;1.23;;
27505;SDS011;14939;43.596;1.320;2023-02-26T15:33:22;2.65;;;1.35;;
27505;SDS011;14939;43.596;1.320;2023-02-26T15:35:49;5.22;;;1.40;;
27505;SDS011;14939;43.596;1.320;2023-02-26T15:38:16;3.03;;;1.45;;
27505;SDS011;14939;43.596;1.320;2023-02-26T15:40:43;2.55;;;1.55;;
27505;SDS011;14939;43.596;1.320;2023-02-26T15:43:11;2.25;;;1.33;;
27505;SDS011;14939;43.596;1.320;2023-02-26T15:45:44;2.25;;;1.20;;
27505;SDS011;14939;43.596;1.320;2023-02-26T15:48:16;2.58;;;1.30;;
27505;SDS011;14939;43.596;1.320;2023-02-26T15:50:51;6.97;;;1.98;;
27505;SDS011;14939;43.596;1.320;2023-02-26T15:53:25;2.83;;;1.65;;
27505;SDS011;14939;43.596;1.320;2023-02-26T15:56:13;4.95;;;1.73;;
27505;SDS011;14939;43.596;1.320;2023-02-26T15:58:48;2.70;;;1.13;;
27505;SDS011;14939;43.596;1.320;2023-02-26T16:01:26;2.80;;;1.58;;
27505;SDS011;14939;43.596;1.320;2023-02-26T16:03:57;3.13;;;1.58;;
27505;SDS011;14939;43.596;1.320;2023-02-26T16:09:06;8.00;;;1.60;;
27505;SDS011;14939;43.596;1.320;2023-02-26T16:11:39;4.57;;;1.27;;
27505;SDS011;14939;43.596;1.320;2023-02-26T16:14:07;5.13;;;1.67;;
27505;SDS011;14939;43.596;1.320;2023-02-26T16:16:44;2.92;;;1.40;;
27505;SDS011;14939;43.596;1.320;2023-02-26T16:19:14;2.80;;;1.40;;
27505;SDS011;14939;43.596;1.320;2023-02-26T16:21:43;4.07;;;1.50;;
27505;SDS011;14939;43.596;1.320;2023-02-26T16:24:12;3.83;;;1.38;;
27505;SDS011;14939;43.596;1.320;2023-02-26T16:26:46;5.57;;;1.50;;
27505;SDS011;14939;43.596;1.320;2023-02-26T16:29:17;4.15;;;1.60;;
27505;SDS011;14939;43.596;1.320;2023-02-26T16:31:49;3.05;;;1.73;;
27505;SDS011;14939;43.596;1.320;2023-02-26T16:34:40;4.25;;;1.70;;
27505;SDS011;14939;43.596;1.320;2023-02-26T16:37:21;3.35;;;1.60;;
27505;SDS011;14939;43.596;1.320;2023-02-26T16:39:47;2.45;;;1.33;;
27505;SDS011;14939;43.596;1.320;2023-02-26T16:42:22;3.92;;;1.73;;
27505;SDS011;14939;43.596;1.320;2023-02-26T16:45:14;2.92;;;1.23;;
27505;SDS011;14939;43.596;1.320;2023-02-26T16:47:45;3.60;;;1.75;;
27505;SDS011;14939;43.596;1.320;2023-02-26T16:50:18;5.07;;;2.10;;
27505;SDS011;14939;43.596;1.320;2023-02-26T16:53:10;5.05;;;1.92;;
27505;SDS011;14939;43.596;1.320;2023-02-26T16:55:40;3.47;;;1.75;;
27505;SDS011;14939;43.596;1.320;2023-02-26T16:58:11;3.85;;;1.75;;
27505;SDS011;14939;43.596;1.320;2023-02-26T17:00:39;5.55;;;2.60;;
27505;SDS011;14939;43.596;1.320;2023-02-26T17:03:19;3.42;;;1.85;;
27505;SDS011;14939;43.596;1.320;2023-02-26T17:05:58;2.72;;;1.85;;
27505;SDS011;14939;43.596;1.320;2023-02-26T17:08:34;7.35;;;2.65;;
27505;SDS011;14939;43.596;1.320;2023-02-26T17:11:06;6.72;;;3.42;;
27505;SDS011;14939;43.596;1.320;2023-02-26T17:13:40;4.57;;;2.20;;
27505;SDS011;14939;43.596;1.320;2023-02-26T17:16:10;3.28;;;1.88;;
27505;SDS011;14939;43.596;1.320;2023-02-26T17:18:37;5.15;;;2.50;;
27505;SDS011;14939;43.596;1.320;2023-02-26T17:21:02;3.28;;;1.95;;
27505;SDS011;14939;43.596;1.320;2023-02-26T17:23:30;3.00;;;2.00;;
27505;SDS011;14939;43.596;1.320;2023-02-26T17:26:00;5.72;;;2.67;;
27505;SDS011;14939;43.596;1.320;2023-02-26T17:28:29;7.57;;;2.92;;
27505;SDS011;14939;43.596;1.320;2023-02-26T17:31:02;6.40;;;3.22;;
27505;SDS011;14939;43.596;1.320;2023-02-26T17:33:29;7.38;;;2.30;;
27505;SDS011;14939;43.596;1.320;2023-02-26T17:35:57;5.72;;;3.05;;
27505;SDS011;14939;43.596;1.320;2023-02-26T17:38:24;6.30;;;2.60;;
27505;SDS011;14939;43.596;1.320;2023-02-26T17:40:49;5.57;;;2.22;;
27505;SDS011;14939;43.596;1.320;2023-02-26T17:43:20;4.85;;;2.25;;
27505;SDS011;14939;43.596;1.320;2023-02-26T17:45:46;5.10;;;1.73;;
27505;SDS011;14939;43.596;1.320;2023-02-26T17:48:12;4.75;;;2.00;;
27505;SDS011;14939;43.596;1.320;2023-02-26T17:53:16;7.95;;;3.60;;
27505;SDS011;14939;43.596;1.320;2023-02-26T17:55:44;6.68;;;2.50;;
27505;SDS011;14939;43.596;1.320;2023-02-26T18:00:54;11.07;;;4.78;;
27505;SDS011;14939;43.596;1.320;2023-02-26T18:03:20;7.00;;;3.13;;
27505;SDS011;14939;43.596;1.320;2023-02-26T18:05:47;6.78;;;3.13;;
27505;SDS011;14939;43.596;1.320;2023-02-26T18:08:24;10.77;;;4.90;;
27505;SDS011;14939;43.596;1.320;2023-02-26T18:10:52;6.10;;;3.53;;
27505;SDS011;14939;43.596;1.320;2023-02-26T18:13:18;7.30;;;3.95;;
27505;SDS011;14939;43.596;1.320;2023-02-26T18:15:45;6.90;;;3.35;;
27505;SDS011;14939;43.596;1.320;2023-02-26T18:18:11;6.75;;;3.45;;
27505;SDS011;14939;43.596;1.320;2023-02-26T18:20:38;6.25;;;2.97;;
27505;SDS011;14939;43.596;1.320;2023-02-26T18:23:04;4.00;;;2.17;;
27505;SDS011;14939;43.596;1.320;2023-02-26T18:25:33;4.40;;;2.30;;
27505;SDS011;14939;43.596;1.320;2023-02-26T18:28:01;4.13;;;1.88;;
27505;SDS011;14939;43.596;1.320;2023-02-26T18:30:31;6.25;;;2.20;;
27505;SDS011;14939;43.596;1.320;2023-02-26T18:33:00;5.57;;;2.90;;
27505;SDS011;14939;43.596;1.320;2023-02-26T18:35:26;4.60;;;2.75;;
27505;SDS011;14939;43.596;1.320;2023-02-26T18:37:55;3.35;;;2.05;;